Time;durP1;ratioP1;P1;durP2;ratioP2;P2;SDS_P1;SDS_P2;PMS_P1;PMS_P2;Temp;Humidity;BMP_temperature;BMP_pressure;BME280_temperature;BME280_humidity;BME280_pressure;Samples;Min_cycle;Max_cycle;Signal;HPM_P1;HPM_P2
2022/03/30 00:00:45;;;;;;;43.07;27.77;;;;;;;14.38;35.14;95073.84;5075451;28;20232;-82
2022/03/30 00:03:12;;;;;;;44.87;25.53;;;;;;;14.50;34.80;95072.69;5070966;28;20334;-82
2022/03/30 00:05:40;;;;;;;41.03;27.27;;;;;;;14.61;34.24;95077.75;5093411;28;20301;-82
2022/03/30 00:08:08;;;;;;;44.83;26.97;;;;;;;14.65;34.47;95062.47;5098538;28;20267;-82
2022/03/30 00:10:36;;;;;;;37.43;25.10;;;;;;;14.60;35.70;95061.72;5074973;28;20288;-83
2022/03/30 00:13:03;;;;;;;36.93;24.77;;;;;;;14.36;36.85;95062.47;5096166;28;20216;-82
2022/03/30 00:15:30;;;;;;;37.83;26.20;;;;;;;14.17;37.33;95063.44;5075346;28;20212;-83
2022/03/30 00:17:58;;;;;;;35.97;24.47;;;;;;;14.03;38.86;95053.19;5096539;28;20315;-83
2022/03/30 00:20:25;;;;;;;35.77;23.17;;;;;;;13.87;39.84;95042.75;5072123;28;20231;-83
2022/03/30 00:22:52;;;;;;;30.10;20.33;;;;;;;13.73;43.36;95050.72;5091571;28;20209;-83
2022/03/30 00:25:20;;;;;;;30.27;21.13;;;;;;;13.20;45.60;95046.94;5089264;28;20213;-83
2022/03/30 00:27:48;;;;;;;36.87;22.60;;;;;;;12.67;46.02;95041.16;5082248;28;20285;-82
2022/03/30 00:30:19;;;;;;;29.80;20.00;;;;;;;12.65;47.38;95053.34;5105574;27;20273;-82
2022/03/30 00:32:47;;;;;;;30.37;19.07;;;;;;;12.44;49.82;95047.16;5071572;28;20204;-83
2022/03/30 00:35:15;;;;;;;28.63;18.43;;;;;;;12.36;50.71;95050.41;5083360;28;20221;-82
2022/03/30 00:37:43;;;;;;;29.50;18.50;;;;;;;12.33;51.82;95056.38;5084146;28;20201;-82
2022/03/30 00:40:13;;;;;;;27.93;18.90;;;;;;;12.26;52.18;95053.13;5079972;28;20227;-82
2022/03/30 00:42:40;;;;;;;28.43;18.67;;;;;;;12.17;52.07;95050.16;5078956;28;20205;-83
2022/03/30 00:45:10;;;;;;;29.77;18.57;;;;;;;12.06;52.79;95046.66;5071955;28;20209;-82
2022/03/30 00:47:38;;;;;;;27.77;18.53;;;;;;;12.02;53.22;95058.28;5072590;28;21577;-83
2022/03/30 00:50:06;;;;;;;30.50;18.27;;;;;;;12.01;53.29;95038.53;5077567;28;20208;-82
2022/03/30 00:52:34;;;;;;;25.40;16.40;;;;;;;12.07;53.05;95037.47;5078045;28;20201;-82
2022/03/30 00:55:01;;;;;;;28.30;17.07;;;;;;;12.07;53.49;95042.88;5099054;27;20197;-83
2022/03/30 00:57:30;;;;;;;26.07;16.63;;;;;;;12.02;53.92;95028.50;5086870;28;20225;-82
2022/03/30 00:59:58;;;;;;;25.47;16.80;;;;;;;11.99;53.98;95039.91;5083323;28;20223;-82
2022/03/30 01:02:26;;;;;;;29.90;17.63;;;;;;;12.02;54.10;95042.84;5074835;28;20202;-82
2022/03/30 01:04:53;;;;;;;27.10;17.47;;;;;;;11.93;54.30;95039.06;5080402;28;20307;-82
2022/03/30 01:07:20;;;;;;;26.80;16.50;;;;;;;11.86;54.36;95032.31;5082031;28;20227;-82
2022/03/30 01:09:48;;;;;;;29.03;17.40;;;;;;;11.85;54.71;95033.38;5094134;28;20207;-82
2022/03/30 01:12:15;;;;;;;27.77;18.33;;;;;;;11.88;54.25;95022.03;5102166;28;20216;-82
2022/03/30 01:14:42;;;;;;;26.13;17.53;;;;;;;11.93;54.48;95022.84;5075264;28;20247;-82
2022/03/30 01:17:10;;;;;;;26.43;17.67;;;;;;;11.85;54.40;95020.66;5079377;28;20282;-82
2022/03/30 01:19:38;;;;;;;27.33;18.50;;;;;;;11.75;55.04;95015.25;5071235;28;20229;-82
2022/03/30 01:22:08;;;;;;;28.40;19.03;;;;;;;11.73;54.66;95012.81;5076510;28;20228;-82
2022/03/30 01:24:36;;;;;;;28.90;18.00;;;;;;;11.70;55.15;95004.41;5081401;28;20232;-82
2022/03/30 01:27:03;;;;;;;27.40;17.30;;;;;;;11.69;54.14;95010.91;5083834;28;20208;-82
2022/03/30 01:32:29;;;;;;;27.67;17.67;;;;;;;11.66;53.57;94989.81;5093219;27;20216;-83
2022/03/30 01:34:57;;;;;;;27.83;17.10;;;;;;;11.60;53.32;94982.78;5081006;28;20295;-83
2022/03/30 01:37:28;;;;;;;26.80;17.27;;;;;;;11.57;54.09;94983.34;5084734;28;20227;-82
2022/03/30 01:39:58;;;;;;;31.27;18.40;;;;;;;11.61;53.62;94984.41;5085131;28;20221;-82
2022/03/30 01:42:26;;;;;;;27.37;18.37;;;;;;;11.59;53.72;94984.66;5070648;28;20203;-82
2022/03/30 01:44:54;;;;;;;31.57;17.97;;;;;;;11.53;52.90;94982.25;5080904;28;20289;-82
2022/03/30 01:47:24;;;;;;;30.33;18.97;;;;;;;11.48;52.00;94976.84;5073526;28;20299;-82
2022/03/30 01:49:52;;;;;;;27.17;18.53;;;;;;;11.51;51.86;94970.88;5084684;28;20230;-82
2022/03/30 01:52:19;;;;;;;32.80;20.00;;;;;;;11.56;51.14;94966.31;5081918;28;20213;-82
2022/03/30 01:54:49;;;;;;;32.30;20.70;;;;;;;11.62;50.73;94959.81;5095559;28;20209;-82
2022/03/30 01:57:16;;;;;;;34.37;22.27;;;;;;;11.66;50.06;94960.06;5080213;28;20215;-82
2022/03/30 01:59:45;;;;;;;36.10;22.37;;;;;;;11.65;49.45;94950.34;5072342;28;20308;-82
2022/03/30 02:02:12;;;;;;;33.83;21.97;;;;;;;11.81;48.43;94960.13;5075968;28;20216;-82
2022/03/30 02:04:40;;;;;;;38.10;23.00;;;;;;;11.83;47.99;94966.03;5075675;28;20201;-82
2022/03/30 02:07:09;;;;;;;33.20;22.77;;;;;;;11.74;48.38;94967.63;5070937;28;20217;-82
2022/03/30 02:09:36;;;;;;;37.47;24.03;;;;;;;11.68;48.48;94947.91;5075780;28;20215;-82
2022/03/30 02:12:07;;;;;;;33.70;22.73;;;;;;;11.74;48.65;94952.25;5077913;28;20236;-82
2022/03/30 02:14:35;;;;;;;36.90;23.30;;;;;;;11.71;48.21;94946.56;5078574;28;20287;-82
2022/03/30 02:17:02;;;;;;;35.20;23.00;;;;;;;11.72;48.83;94954.41;5071306;28;20229;-82
2022/03/30 02:19:30;;;;;;;36.10;23.13;;;;;;;11.64;48.75;94936.03;5082519;28;20224;-82
2022/03/30 02:21:58;;;;;;;37.73;22.70;;;;;;;11.69;48.61;94935.19;5078819;28;20204;-82
2022/03/30 02:24:25;;;;;;;34.70;22.40;;;;;;;11.63;48.11;94931.69;5097495;28;20227;-83
2022/03/30 02:26:52;;;;;;;32.23;21.63;;;;;;;11.65;48.43;94931.44;5077471;28;20205;-82
2022/03/30 02:29:21;;;;;;;35.57;23.47;;;;;;;11.68;47.71;94920.88;5092527;28;20225;-82
2022/03/30 02:31:53;;;;;;;36.20;23.50;;;;;;;11.72;47.64;94926.56;5096623;28;20205;-82
2022/03/30 02:34:24;;;;;;;35.50;23.33;;;;;;;11.68;47.76;94925.47;5082891;28;20224;-82
2022/03/30 02:36:51;;;;;;;36.93;22.57;;;;;;;11.74;47.96;94924.38;5078813;28;20212;-82
2022/03/30 02:39:18;;;;;;;38.77;23.90;;;;;;;11.71;48.18;94919.53;5072380;28;20270;-82
2022/03/30 02:41:46;;;;;;;32.43;22.20;;;;;;;11.64;49.87;94913.59;5083181;28;20246;-82
2022/03/30 02:44:13;;;;;;;32.50;19.83;;;;;;;11.58;51.42;94920.88;5072625;28;20201;-82
2022/03/30 02:46:43;;;;;;;30.30;21.80;;;;;;;11.48;51.82;94914.69;5095128;28;20230;-82
2022/03/30 02:49:10;;;;;;;32.57;20.50;;;;;;;11.40;53.40;94912.50;5079114;28;20201;-82
2022/03/30 02:51:38;;;;;;;30.83;21.00;;;;;;;11.32;54.27;94914.66;5074179;28;20224;-83
2022/03/30 02:54:06;;;;;;;31.30;19.70;;;;;;;11.19;55.79;94917.91;5077125;28;20208;-82
2022/03/30 02:56:34;;;;;;;27.63;18.90;;;;;;;11.18;56.36;94915.47;5076650;28;20212;-82
2022/03/30 02:59:01;;;;;;;27.03;19.37;;;;;;;11.04;57.31;94914.38;5078924;28;20298;-82
2022/03/30 03:01:28;;;;;;;29.97;19.60;;;;;;;10.96;58.22;94913.00;5096136;28;20205;-82
2022/03/30 03:03:57;;;;;;;32.90;19.90;;;;;;;10.89;59.22;94904.31;5088789;28;20287;-82
2022/03/30 03:06:24;;;;;;;32.00;19.40;;;;;;;10.95;58.24;94901.41;5082842;28;20309;-82
2022/03/30 03:08:51;;;;;;;30.43;19.43;;;;;;;10.88;58.95;94903.53;5069767;28;20206;-82
2022/03/30 03:11:18;;;;;;;34.80;20.80;;;;;;;10.77;59.04;94901.06;5071136;28;20210;-82
2022/03/30 03:13:45;;;;;;;31.77;20.80;;;;;;;10.72;59.59;94898.38;5071118;28;20215;-82
2022/03/30 03:16:13;;;;;;;31.80;21.03;;;;;;;10.66;59.76;94886.75;5093530;28;20226;-82
2022/03/30 03:18:40;;;;;;;28.13;18.83;;;;;;;10.66;60.25;94884.03;5081502;28;20296;-82
2022/03/30 03:21:08;;;;;;;36.63;20.17;;;;;;;10.59;60.98;94899.69;5075385;28;20227;-82
2022/03/30 03:23:35;;;;;;;29.40;19.00;;;;;;;10.56;61.13;94898.31;5079075;28;20239;-82
2022/03/30 03:26:03;;;;;;;30.00;18.93;;;;;;;10.51;61.98;94903.69;5093968;28;20200;-82
2022/03/30 03:28:30;;;;;;;35.40;20.60;;;;;;;10.47;61.38;94899.91;5086770;28;20271;-82
2022/03/30 03:30:57;;;;;;;32.20;20.70;;;;;;;10.33;62.10;94898.78;5085065;28;20212;-82
2022/03/30 03:33:24;;;;;;;29.50;18.97;;;;;;;10.21;62.34;94892.78;5100370;28;20203;-82
2022/03/30 03:35:52;;;;;;;30.90;20.20;;;;;;;10.19;61.96;94886.84;5090486;28;20205;-82
2022/03/30 03:38:20;;;;;;;30.67;19.23;;;;;;;10.28;61.63;94895.25;5085440;28;20207;-82
2022/03/30 03:40:47;;;;;;;34.60;21.17;;;;;;;10.30;61.88;94893.91;5106345;27;20304;-82
2022/03/30 03:43:14;;;;;;;34.60;20.50;;;;;;;10.27;62.03;94894.44;5091130;28;20214;-82
2022/03/30 03:45:41;;;;;;;36.77;20.57;;;;;;;10.25;62.92;94891.19;5098175;28;20292;-82
2022/03/30 03:48:09;;;;;;;33.00;19.80;;;;;;;10.27;63.15;94888.22;5092447;28;20205;-82
2022/03/30 03:50:37;;;;;;;28.47;18.97;;;;;;;10.23;63.36;94890.63;5090259;28;20245;-81
2022/03/30 03:53:04;;;;;;;31.97;19.87;;;;;;;10.12;64.07;94878.16;5081376;28;20219;-82
2022/03/30 03:55:36;;;;;;;27.13;19.17;;;;;;;10.12;63.93;94876.25;5071849;28;20210;-82
2022/03/30 03:58:05;;;;;;;30.50;19.83;;;;;;;10.11;63.36;94877.34;5072505;28;20198;-82
2022/03/30 04:00:33;;;;;;;27.60;19.10;;;;;;;10.16;62.81;94877.38;5080362;28;20271;-82
2022/03/30 04:03:01;;;;;;;31.63;20.47;;;;;;;10.12;63.23;94876.25;5082060;28;20215;-82
2022/03/30 04:05:40;;;;;;;33.10;21.07;;;;;;;10.13;62.97;94871.66;5095578;28;20205;-82
2022/03/30 04:08:07;;;;;;;37.43;19.03;;;;;;;10.15;63.21;94874.94;5071275;28;20227;-82
2022/03/30 04:10:36;;;;;;;31.97;20.23;;;;;;;10.17;63.12;94870.09;5099276;27;20211;-82
2022/03/30 04:13:05;;;;;;;29.53;20.23;;;;;;;10.13;62.88;94885.16;5089091;28;20212;-82
2022/03/30 04:15:34;;;;;;;31.60;20.83;;;;;;;10.14;62.89;94873.28;5080405;28;20205;-82
2022/03/30 04:18:03;;;;;;;34.43;20.53;;;;;;;10.10;62.98;94866.81;5082130;28;20233;-82
2022/03/30 04:20:31;;;;;;;33.10;21.17;;;;;;;10.09;63.82;94874.09;5083806;28;20232;-81
2022/03/30 04:22:58;;;;;;;32.87;20.37;;;;;;;10.11;63.79;94873.84;5082203;28;20197;-82
2022/03/30 04:25:25;;;;;;;36.90;20.83;;;;;;;10.05;63.01;94869.47;5100657;27;20214;-82
2022/03/30 04:27:55;;;;;;;32.17;20.30;;;;;;;10.06;62.88;94865.72;5085301;28;20200;-82
2022/03/30 04:30:23;;;;;;;38.43;21.77;;;;;;;10.06;63.17;94871.91;5090527;28;20197;-82
2022/03/30 04:32:50;;;;;;;37.97;21.57;;;;;;;10.05;64.25;94872.19;5076392;28;20205;-82
2022/03/30 04:35:24;;;;;;;38.67;22.83;;;;;;;10.04;64.12;94862.47;5080244;28;20212;-82
2022/03/30 04:37:54;;;;;;;32.90;21.50;;;;;;;10.02;64.66;94870.03;5100842;27;20224;-82
2022/03/30 04:40:22;;;;;;;36.30;21.87;;;;;;;9.99;64.43;94867.84;5080624;28;20233;-82
2022/03/30 04:43:08;;;;;;;36.27;22.03;;;;;;;10.04;64.59;94865.16;5079129;28;20240;-82
2022/03/30 04:45:35;;;;;;;31.07;20.67;;;;;;;10.05;63.58;94864.09;5076386;28;20220;-83
2022/03/30 04:48:02;;;;;;;30.30;20.77;;;;;;;10.00;63.72;94855.97;5109377;27;20259;-82
2022/03/30 04:50:29;;;;;;;39.83;21.63;;;;;;;10.06;63.60;94863.81;5080936;28;20211;-82
2022/03/30 04:53:28;;;;;;;30.37;21.50;;;;;;;10.04;63.39;94859.75;5069918;28;20205;-82
2022/03/30 04:56:16;;;;;;;35.40;21.63;;;;;;;10.02;63.96;94856.53;5092325;28;20207;-82
2022/03/30 04:58:44;;;;;;;35.53;22.60;;;;;;;10.03;64.67;94868.94;5094352;27;20196;-83
2022/03/30 05:01:11;;;;;;;35.83;21.30;;;;;;;10.09;64.75;94854.41;5077403;28;20253;-82
2022/03/30 05:03:39;;;;;;;33.40;21.93;;;;;;;10.10;64.39;94850.63;5097439;27;20197;-82
2022/03/30 05:06:06;;;;;;;31.50;20.40;;;;;;;10.15;64.22;94854.16;5076106;28;20197;-82
2022/03/30 05:08:36;;;;;;;33.17;21.13;;;;;;;10.19;64.62;94849.09;5077194;28;20207;-82
2022/03/30 05:11:03;;;;;;;35.50;21.97;;;;;;;10.11;64.03;94846.88;5077061;28;20272;-82
2022/03/30 05:13:30;;;;;;;33.57;21.93;;;;;;;10.15;64.57;94853.34;5077678;28;20212;-82
2022/03/30 05:15:59;;;;;;;37.37;22.17;;;;;;;10.16;64.26;94845.00;5085614;28;20296;-82
2022/03/30 05:18:26;;;;;;;32.43;21.60;;;;;;;10.12;64.89;94845.81;5076489;28;20216;-82
2022/03/30 05:20:54;;;;;;;31.97;21.77;;;;;;;10.14;64.78;94838.25;5090687;27;20236;-82
2022/03/30 05:23:21;;;;;;;39.53;23.40;;;;;;;10.07;64.85;94845.75;5083072;28;20283;-82
2022/03/30 05:25:48;;;;;;;34.77;22.50;;;;;;;10.11;65.35;94849.56;5074960;28;20205;-82
2022/03/30 05:28:15;;;;;;;36.03;23.27;;;;;;;10.08;64.32;94842.81;5079610;28;20227;-82
2022/03/30 05:30:42;;;;;;;39.33;22.77;;;;;;;10.05;65.40;94847.91;5079222;28;20193;-82
2022/03/30 05:33:11;;;;;;;40.63;23.97;;;;;;;10.04;65.34;94835.50;5090329;28;20266;-83
2022/03/30 05:35:38;;;;;;;40.10;24.00;;;;;;;10.04;65.22;94841.69;5083063;28;20219;-82
2022/03/30 05:38:05;;;;;;;34.77;22.37;;;;;;;10.10;65.51;94850.63;5082229;28;20200;-82
2022/03/30 05:40:32;;;;;;;37.50;23.50;;;;;;;10.09;64.81;94854.41;5082505;28;20213;-82
2022/03/30 05:43:00;;;;;;;36.57;22.80;;;;;;;10.05;65.09;94847.91;5082752;28;20201;-81
2022/03/30 05:45:27;;;;;;;33.30;22.07;;;;;;;10.07;65.64;94845.75;5081144;28;20192;-82
2022/03/30 05:47:58;;;;;;;36.50;23.03;;;;;;;10.12;64.94;94848.50;5081720;28;20299;-82
2022/03/30 05:50:27;;;;;;;41.63;22.83;;;;;;;10.07;65.91;94840.38;5098256;28;20204;-81
2022/03/30 05:52:54;;;;;;;35.73;22.10;;;;;;;10.13;65.85;94850.09;5081551;28;20208;-82
2022/03/30 05:55:21;;;;;;;46.27;25.67;;;;;;;10.06;65.68;94846.84;5085193;28;20225;-82
2022/03/30 05:57:48;;;;;;;41.53;23.00;;;;;;;9.98;66.96;94845.47;5081816;28;20207;-82
2022/03/30 06:00:28;;;;;;;33.90;22.57;;;;;;;10.02;66.97;94845.75;5089977;28;20293;-82
2022/03/30 06:03:01;;;;;;;40.27;23.93;;;;;;;10.00;66.30;94843.31;5075672;28;20220;-82
2022/03/30 06:05:30;;;;;;;38.13;23.80;;;;;;;10.00;66.07;94845.19;5077439;28;20209;-82
2022/03/30 06:07:57;;;;;;;40.37;25.00;;;;;;;9.96;66.93;94841.41;5087668;28;20201;-82
2022/03/30 06:10:26;;;;;;;39.73;24.23;;;;;;;9.95;66.57;94837.91;5078604;28;20212;-82
2022/03/30 06:12:53;;;;;;;39.47;23.67;;;;;;;9.97;66.31;94845.72;5071847;28;20230;-82
2022/03/30 06:15:20;;;;;;;39.47;24.07;;;;;;;9.98;65.48;94847.34;5082959;28;20215;-82
2022/03/30 06:17:49;;;;;;;41.87;24.17;;;;;;;9.95;65.32;94837.09;5080948;28;20221;-81
2022/03/30 06:20:16;;;;;;;37.17;23.93;;;;;;;10.00;65.84;94837.13;5076175;28;20213;-82
2022/03/30 06:22:45;;;;;;;40.23;23.93;;;;;;;10.13;65.50;94842.81;5075592;28;20204;-81
2022/03/30 06:25:13;;;;;;;44.07;25.57;;;;;;;10.17;64.89;94841.25;5078929;28;20255;-81
2022/03/30 06:27:41;;;;;;;42.47;25.50;;;;;;;10.21;64.28;94844.22;5093802;28;20212;-81
2022/03/30 06:30:10;;;;;;;43.10;25.13;;;;;;;10.20;64.34;94838.03;5072715;28;20241;-81
2022/03/30 06:32:37;;;;;;;38.87;25.33;;;;;;;10.24;64.52;94846.41;5078615;28;20288;-81
2022/03/30 06:35:06;;;;;;;41.20;25.07;;;;;;;10.31;64.17;94840.75;5102456;28;20200;-81
2022/03/30 06:37:33;;;;;;;46.27;25.07;;;;;;;10.40;64.96;94845.38;5096705;27;20268;-81
2022/03/30 06:40:05;;;;;;;42.60;24.63;;;;;;;10.37;65.03;94843.22;5073546;28;20264;-81
2022/03/30 06:42:35;;;;;;;38.53;25.10;;;;;;;10.39;65.43;94849.16;5088107;28;20218;-81
2022/03/30 06:45:02;;;;;;;41.93;26.20;;;;;;;10.45;65.61;94844.59;5079455;28;20287;-82
2022/03/30 06:47:30;;;;;;;45.93;26.90;;;;;;;10.48;64.26;94847.56;5075416;28;20265;-82
2022/03/30 06:49:57;;;;;;;43.77;26.67;;;;;;;10.57;64.72;94843.25;5079638;28;20266;-82
2022/03/30 06:52:26;;;;;;;41.23;25.63;;;;;;;10.70;65.04;94846.53;5070207;28;20212;-81
2022/03/30 06:54:55;;;;;;;37.20;24.83;;;;;;;10.77;65.11;94844.38;5080469;28;20205;-83
2022/03/30 06:57:23;;;;;;;43.60;25.23;;;;;;;10.82;63.75;94838.97;5078290;28;20197;-82
2022/03/30 06:59:51;;;;;;;40.23;24.07;;;;;;;10.88;61.76;94835.22;5095828;28;20204;-82
2022/03/30 07:02:18;;;;;;;41.10;24.83;;;;;;;10.93;61.42;94843.31;5084038;28;20249;-82
2022/03/30 07:04:45;;;;;;;39.37;26.03;;;;;;;11.00;61.83;94827.66;5085237;28;20200;-81
2022/03/30 07:12:43;;;;;;;37.70;25.27;;;;;;;11.33;60.31;94827.09;5083481;28;20213;-82
2022/03/30 07:15:23;;;;;;;42.23;26.60;;;;;;;11.40;60.68;94821.41;5094837;28;20252;-84
2022/03/30 07:18:01;;;;;;;42.00;27.33;;;;;;;11.48;61.33;94814.69;5121765;27;20290;-82
2022/03/30 07:20:36;;;;;;;38.87;26.47;;;;;;;11.57;62.87;94826.56;5107144;28;20217;-81
2022/03/30 07:23:03;;;;;;;38.13;25.50;;;;;;;11.63;61.47;94825.44;5097624;27;20208;-81
2022/03/30 07:25:31;;;;;;;44.83;26.63;;;;;;;11.64;62.09;94827.06;5107047;27;20199;-82
2022/03/30 07:28:02;;;;;;;41.27;26.53;;;;;;;11.66;62.40;94822.19;5102546;27;20287;-81
2022/03/30 07:30:30;;;;;;;38.73;25.03;;;;;;;11.69;61.77;94825.16;5119492;27;20207;-81
2022/03/30 07:33:03;;;;;;;38.93;23.93;;;;;;;11.69;60.65;94829.75;5114986;27;20207;-82
2022/03/30 07:35:32;;;;;;;43.97;25.93;;;;;;;11.65;59.11;94826.00;5102261;27;20212;-81
2022/03/30 07:38:02;;;;;;;42.67;24.13;;;;;;;11.65;60.27;94828.69;5114534;27;20294;-81
2022/03/30 07:40:31;;;;;;;39.67;24.53;;;;;;;11.64;59.73;94822.47;5105642;28;20212;-81
2022/03/30 07:43:00;;;;;;;42.07;25.57;;;;;;;11.73;60.80;94820.03;5102889;27;20268;-81
2022/03/30 07:45:29;;;;;;;47.87;25.90;;;;;;;11.78;61.11;94828.16;5104196;27;20204;-82
2022/03/30 07:48:03;;;;;;;46.33;26.57;;;;;;;11.74;61.15;94827.03;5090132;27;20239;-82
2022/03/30 07:50:33;;;;;;;44.30;25.57;;;;;;;11.68;59.27;94833.53;5064076;28;20201;-81
2022/03/30 07:53:00;;;;;;;44.47;25.70;;;;;;;11.47;60.14;94824.69;5078992;28;20202;-81
2022/03/30 07:55:30;;;;;;;39.50;24.87;;;;;;;11.29;60.76;94828.75;5059150;28;20296;-81
2022/03/30 07:57:57;;;;;;;52.20;27.07;;;;;;;11.31;62.26;94833.88;5065172;28;20207;-81
2022/03/30 08:00:26;;;;;;;41.50;25.53;;;;;;;11.37;62.77;94821.97;5074559;28;20213;-81
2022/03/30 08:02:53;;;;;;;43.70;25.23;;;;;;;11.49;62.85;94819.78;5068394;28;20270;-81
2022/03/30 08:05:21;;;;;;;43.93;25.30;;;;;;;11.49;63.00;94818.97;5066247;28;20232;-82
2022/03/30 08:07:49;;;;;;;40.00;25.20;;;;;;;11.51;63.16;94824.91;5063611;28;20208;-81
2022/03/30 08:10:17;;;;;;;44.53;25.20;;;;;;;11.55;63.98;94818.72;5069995;28;20248;-81
2022/03/30 08:12:45;;;;;;;40.93;24.03;;;;;;;11.62;63.65;94824.63;5071122;28;20198;-81
2022/03/30 08:15:13;;;;;;;39.10;23.77;;;;;;;11.66;62.80;94825.69;5052762;28;20197;-80
2022/03/30 08:17:42;;;;;;;32.10;19.17;;;;;;;11.74;63.87;94827.03;5080750;28;20227;-79
2022/03/30 08:20:12;;;;;;;30.37;15.10;;;;;;;11.81;66.31;94830.31;5062076;28;20205;-79
2022/03/30 08:22:38;;;;;;;29.77;12.40;;;;;;;11.89;68.40;94824.34;5077569;28;20232;-80
2022/03/30 08:25:07;;;;;;;22.40;9.97;;;;;;;12.06;68.50;94824.81;5073500;28;20270;-80
2022/03/30 08:27:36;;;;;;;25.90;10.30;;;;;;;12.19;66.87;94826.09;5056562;28;20216;-79
2022/03/30 08:30:05;;;;;;;28.90;10.50;;;;;;;12.31;66.93;94825.78;5061789;28;20205;-79
2022/03/30 08:32:33;;;;;;;27.07;9.80;;;;;;;12.35;67.32;94829.56;5064315;28;20209;-79
2022/03/30 08:35:05;;;;;;;28.17;11.87;;;;;;;12.37;67.98;94820.06;5068536;28;20210;-80
2022/03/30 08:37:32;;;;;;;21.53;9.33;;;;;;;12.42;67.78;94827.34;5076979;28;20205;-80
2022/03/30 08:39:59;;;;;;;24.50;9.60;;;;;;;12.44;69.33;94827.88;5061614;28;20206;-80
2022/03/30 08:42:27;;;;;;;25.60;9.43;;;;;;;12.58;69.43;94823.50;5056821;28;20233;-80
2022/03/30 08:44:54;;;;;;;19.07;8.03;;;;;;;12.73;68.69;94826.09;5074238;28;20210;-80
2022/03/30 08:47:21;;;;;;;22.10;8.83;;;;;;;12.81;67.28;94822.81;5076802;28;20258;-80
2022/03/30 08:49:50;;;;;;;25.20;8.53;;;;;;;12.83;66.54;94833.34;5063580;28;20206;-80
2022/03/30 08:52:19;;;;;;;21.00;8.37;;;;;;;12.79;66.22;94827.69;5066242;28;20292;-79
2022/03/30 08:54:49;;;;;;;20.60;8.27;;;;;;;12.78;66.94;94826.06;5077218;28;20199;-80
2022/03/30 08:57:16;;;;;;;23.87;8.57;;;;;;;12.83;66.28;94820.63;5058864;28;20219;-80
2022/03/30 09:00:02;;;;;;;22.50;8.83;;;;;;;12.88;66.46;94828.72;5058109;28;20204;-80
2022/03/30 09:02:40;;;;;;;27.60;9.07;;;;;;;12.94;65.83;94820.53;5068686;28;20259;-80
2022/03/30 09:05:19;;;;;;;22.27;8.37;;;;;;;13.05;65.65;94825.59;5075946;28;20257;-80
2022/03/30 09:07:49;;;;;;;22.43;8.60;;;;;;;13.19;65.39;94814.94;5070123;28;20212;-80
2022/03/30 09:10:19;;;;;;;16.60;8.43;;;;;;;13.31;64.70;94818.09;5060679;28;20221;-80
2022/03/30 09:12:49;;;;;;;26.83;9.67;;;;;;;13.35;63.95;94812.94;5060204;28;20209;-81
2022/03/30 09:15:18;;;;;;;22.77;8.90;;;;;;;13.42;64.29;94806.09;5066333;28;20220;-81
2022/03/30 09:17:45;;;;;;;31.33;9.23;;;;;;;13.52;64.34;94811.44;5058851;28;20240;-80
2022/03/30 09:20:19;;;;;;;20.93;9.00;;;;;;;13.60;63.45;94816.22;5073149;28;20292;-81
2022/03/30 09:22:49;;;;;;;36.17;8.83;;;;;;;13.55;62.92;94808.13;5066690;28;20229;-80
2022/03/30 09:25:17;;;;;;;20.47;7.43;;;;;;;13.51;63.38;94809.00;5054404;28;20209;-80
2022/03/30 09:27:47;;;;;;;22.03;8.20;;;;;;;13.49;64.62;94811.19;5059814;28;20216;-80
2022/03/30 09:30:15;;;;;;;26.87;8.67;;;;;;;13.48;64.93;94806.84;5056263;28;20251;-80
2022/03/30 09:32:44;;;;;;;21.40;8.87;;;;;;;13.53;64.45;94798.66;5078019;28;20208;-80
2022/03/30 09:35:27;;;;;;;27.10;9.83;;;;;;;13.51;63.81;94804.38;5059827;28;20256;-80
2022/03/30 09:38:08;;;;;;;24.43;9.37;;;;;;;13.55;64.61;94804.59;5059580;28;20232;-80
2022/03/30 09:40:41;;;;;;;22.40;8.00;;;;;;;13.52;65.51;94795.16;5077376;28;20225;-81
2022/03/30 09:43:23;;;;;;;27.43;8.47;;;;;;;13.55;64.98;94791.03;5078604;28;20218;-80
2022/03/30 09:46:03;;;;;;;19.17;7.43;;;;;;;13.48;66.52;94796.00;5059377;28;20349;-80
2022/03/30 09:48:34;;;;;;;19.57;6.73;;;;;;;13.48;67.08;94791.38;5074695;28;20296;-80
2022/03/30 09:51:02;;;;;;;20.87;7.23;;;;;;;13.53;67.01;94794.03;5054975;28;20219;-80
2022/03/30 09:53:32;;;;;;;29.53;8.23;;;;;;;13.57;68.05;94791.56;5055001;28;20228;-80
2022/03/30 09:56:02;;;;;;;25.97;8.67;;;;;;;13.61;69.17;94784.47;5071060;28;20209;-80
2022/03/30 09:58:31;;;;;;;16.83;7.40;;;;;;;13.63;68.65;94787.69;5058312;28;20234;-80
2022/03/30 10:01:08;;;;;;;22.30;7.30;;;;;;;13.60;69.99;94783.69;5062042;28;20262;-80
2022/03/30 10:03:42;;;;;;;20.80;7.23;;;;;;;13.59;70.80;94779.34;5069020;28;20229;-80
2022/03/30 10:06:10;;;;;;;21.63;7.17;;;;;;;13.55;71.30;94770.16;5069427;28;20225;-80
2022/03/30 10:08:40;;;;;;;19.00;7.00;;;;;;;13.50;70.18;94762.09;5052729;28;20294;-80
2022/03/30 10:11:09;;;;;;;20.37;7.80;;;;;;;13.53;70.19;94772.34;5075547;28;20216;-80
2022/03/30 10:13:38;;;;;;;17.07;7.00;;;;;;;13.56;69.80;94760.94;5061001;28;20197;-81
2022/03/30 10:16:06;;;;;;;23.17;7.50;;;;;;;13.56;70.28;94762.84;5063855;28;20225;-81
2022/03/30 10:18:34;;;;;;;15.93;7.27;;;;;;;13.58;71.91;94756.03;5059493;28;20251;-81
2022/03/30 10:21:12;;;;;;;22.23;7.73;;;;;;;13.70;72.48;94754.81;5068720;28;20208;-82
2022/03/30 10:23:53;;;;;;;21.20;7.00;;;;;;;13.85;70.63;94746.53;5066421;28;20232;-82
2022/03/30 10:26:55;;;;;;;24.63;8.10;;;;;;;13.92;69.67;94758.63;5077123;28;20212;-82
2022/03/30 10:29:30;;;;;;;22.60;7.77;;;;;;;13.70;70.80;94749.38;5071206;28;20293;-82
2022/03/30 10:32:41;;;;;;;18.30;7.60;;;;;;;13.73;71.74;94743.41;5055362;28;20201;-81
2022/03/30 10:35:37;;;;;;;24.77;7.63;;;;;;;13.50;71.50;94736.88;5074025;28;20268;-82
2022/03/30 10:38:04;;;;;;;20.00;7.87;;;;;;;13.46;72.90;94731.22;5079560;28;20192;-82
2022/03/30 10:41:00;;;;;;;27.70;8.20;;;;;;;13.24;73.91;94736.31;5080684;28;20220;-83
2022/03/30 10:46:36;;;;;;;20.40;8.00;;;;;;;13.15;75.57;94724.50;5062686;28;20223;-81
2022/03/30 10:49:40;;;;;;;24.83;8.50;;;;;;;13.07;75.62;94735.91;5057933;28;20197;-81
2022/03/30 10:52:28;;;;;;;23.87;7.63;;;;;;;12.88;76.63;94731.19;5084150;28;20217;-81
2022/03/30 10:55:33;;;;;;;18.53;8.27;;;;;;;12.80;77.60;94726.38;5066628;28;20213;-82
2022/03/30 10:58:04;;;;;;;22.50;7.37;;;;;;;12.83;78.32;94725.84;5048416;28;20310;-81
2022/03/30 11:00:36;;;;;;;24.77;9.27;;;;;;;12.88;78.50;94728.47;5064060;28;20223;-80
2022/03/30 11:03:17;;;;;;;26.07;8.87;;;;;;;12.75;78.07;94722.91;5063399;28;20232;-83
2022/03/30 11:06:02;;;;;;;27.60;8.53;;;;;;;12.79;77.81;94715.84;5061597;28;20213;-83
2022/03/30 11:09:07;;;;;;;25.37;8.73;;;;;;;12.93;77.55;94719.50;5062095;28;20201;-79
2022/03/30 11:11:39;;;;;;;24.33;9.20;;;;;;;12.73;77.57;94717.78;5066641;28;20205;-79
2022/03/30 11:14:27;;;;;;;24.10;9.37;;;;;;;12.68;77.75;94723.22;5064708;28;20200;-79
2022/03/30 11:16:56;;;;;;;22.50;9.20;;;;;;;12.68;77.54;94723.22;5082611;28;20237;-79
2022/03/30 11:19:29;;;;;;;31.37;9.63;;;;;;;12.68;77.88;94725.94;5057526;28;20205;-80
2022/03/30 11:22:11;;;;;;;24.83;9.37;;;;;;;12.61;77.92;94711.91;5059080;28;20210;-80
2022/03/30 11:24:39;;;;;;;30.53;9.50;;;;;;;12.50;77.80;94715.81;5080189;28;20290;-79
2022/03/30 11:27:22;;;;;;;24.90;9.20;;;;;;;12.45;78.42;94713.91;5063383;28;20315;-79
2022/03/30 11:30:10;;;;;;;21.23;9.97;;;;;;;12.44;78.88;94714.19;5074081;28;20261;-79
2022/03/30 11:33:19;;;;;;;21.67;8.87;;;;;;;12.29;79.51;94719.72;5061524;28;20201;-79
2022/03/30 11:35:49;;;;;;;21.23;8.00;;;;;;;12.16;81.64;94710.34;5065995;28;20213;-79
2022/03/30 11:38:25;;;;;;;24.33;9.00;;;;;;;12.13;81.64;94710.88;5063684;28;20210;-80
2022/03/30 11:41:01;;;;;;;22.47;8.90;;;;;;;12.03;82.64;94708.25;5060271;28;20197;-80
2022/03/30 11:43:29;;;;;;;21.80;8.37;;;;;;;12.06;82.27;94716.63;5078446;28;20216;-80
2022/03/30 11:45:59;;;;;;;15.23;8.10;;;;;;;12.03;82.24;94711.75;5063970;28;20205;-80